createdAt,value
2017-09-12T00:00:02.889Z,88.53
2017-09-12T00:05:02.507Z,88.82
2017-09-12T00:10:02.746Z,88.21
2017-09-12T00:15:02.936Z,89.26
2017-09-12T00:20:02.732Z,88.78
2017-09-12T00:25:02.942Z,89.41
2017-09-12T00:30:02.146Z,89.75
2017-09-12T00:35:02.396Z,90.04
2017-09-12T00:40:02.615Z,90.45
2017-09-12T00:45:02.899Z,90.81
2017-09-12T00:50:02.771Z,90.49
2017-09-12T00:55:02.977Z,91.1
2017-09-12T01:00:02.261Z,91.09
2017-09-12T01:05:02.916Z,91.02
2017-09-12T01:10:02.110Z,91.1
2017-09-12T01:15:02.314Z,91.24
2017-09-12T01:20:02.766Z,91.43
2017-09-12T01:25:03.005Z,90.84
2017-09-12T01:30:02.204Z,90.62
2017-09-12T01:35:02.424Z,90.86
2017-09-12T01:40:02.619Z,91.01
2017-09-12T01:45:02.858Z,91.46
2017-09-12T01:50:02.041Z,90.78
2017-09-12T01:55:02.329Z,91.29
2017-09-12T02:00:02.473Z,93.13
2017-09-12T02:05:02.395Z,92.52
2017-09-12T02:10:02.605Z,92.96
2017-09-12T02:15:02.877Z,92.55
2017-09-12T02:20:02.226Z,92.67
2017-09-12T02:25:02.479Z,92.21
2017-09-12T02:30:02.692Z,91.78
2017-09-12T02:35:02.167Z,92.62
2017-09-12T02:40:02.413Z,92.55
2017-09-12T02:45:02.637Z,92.89
2017-09-12T02:50:02.631Z,92.71
2017-09-12T02:55:02.929Z,92.26
2017-09-12T03:00:02.124Z,92.49
2017-09-12T03:05:02.700Z,92.27
2017-09-12T03:10:02.874Z,92.75
2017-09-12T03:15:02.078Z,92.13
2017-09-12T03:20:02.912Z,92.67
2017-09-12T03:25:02.097Z,92.66
2017-09-12T03:30:02.326Z,92.28
2017-09-12T03:35:02.642Z,92.67
2017-09-12T03:40:02.887Z,93.13
2017-09-12T03:45:02.064Z,93.83
2017-09-12T03:50:02.206Z,94.51
2017-09-12T03:55:02.412Z,94.93
2017-09-12T04:00:02.561Z,94.22
2017-09-12T04:05:02.075Z,93.83
2017-09-12T04:10:02.337Z,93.92
2017-09-12T04:15:02.559Z,94.2
2017-09-12T04:20:02.847Z,94.07
2017-09-12T04:25:02.109Z,94.69
2017-09-12T04:30:02.362Z,93.91
2017-09-12T04:35:02.781Z,94.54
2017-09-12T04:40:02.953Z,94.9
2017-09-12T04:45:02.254Z,94.83
2017-09-12T04:50:02.062Z,95.12
2017-09-12T04:55:02.332Z,94.95
2017-09-12T05:00:02.586Z,95.75
2017-09-12T05:05:02.494Z,95.71
2017-09-12T05:10:02.703Z,96.38
2017-09-12T05:15:02.928Z,96.06
2017-09-12T05:20:02.891Z,95.42
2017-09-12T05:25:02.037Z,95.54
2017-09-12T05:30:02.270Z,95.73
2017-09-12T05:35:02.345Z,95.48
2017-09-12T05:40:02.522Z,95.34
2017-09-12T05:45:02.756Z,94.7
2017-09-12T05:50:02.060Z,94.95
2017-09-12T05:55:02.216Z,94.92
2017-09-12T06:00:02.448Z,94.15
2017-09-12T06:05:02.316Z,94.28
2017-09-12T06:10:02.523Z,93.15
2017-09-12T06:15:02.742Z,93.65
2017-09-12T06:20:02.776Z,94.28
2017-09-12T06:25:02.978Z,93.7
2017-09-12T06:30:02.185Z,94.11
2017-09-12T06:35:02.414Z,94.28
2017-09-12T06:40:02.618Z,94.04
2017-09-12T06:45:02.894Z,93.29
2017-09-12T06:50:02.157Z,93.98
2017-09-12T06:55:02.366Z,93.86
2017-09-12T07:00:02.569Z,94.22
2017-09-12T07:05:02.207Z,94
2017-09-12T07:10:02.414Z,94.59
2017-09-12T07:15:02.604Z,94.67
2017-09-12T07:20:02.194Z,95.66
2017-09-12T07:25:02.397Z,95.74
2017-09-12T07:30:02.544Z,95.49
2017-09-12T07:35:02.452Z,94.93
2017-09-12T07:40:02.627Z,95.01
2017-09-12T07:45:02.791Z,94.97
2017-09-12T07:50:02.723Z,94.05
2017-09-12T07:55:02.903Z,93.77
2017-09-12T08:00:02.096Z,94.16
2017-09-12T08:05:02.857Z,94.04
2017-09-12T08:10:02.075Z,94.07
2017-09-12T08:15:02.289Z,94.71
2017-09-12T08:20:02.616Z,94.5
2017-09-12T08:25:02.819Z,94.36
2017-09-12T08:30:02.984Z,94.67
2017-09-12T08:35:02.192Z,94.1
2017-09-12T08:40:02.395Z,94
2017-09-12T08:45:02.618Z,92.61
2017-09-12T08:50:02.841Z,93.83
2017-09-12T08:55:02.018Z,93
2017-09-12T09:00:02.228Z,93.06
2017-09-12T09:05:02.461Z,93.73
2017-09-12T09:10:02.634Z,93.67
2017-09-12T09:15:02.804Z,93.51
2017-09-12T09:20:02.302Z,93.14
2017-09-12T09:25:02.494Z,93.34
2017-09-12T09:30:02.663Z,91.63
2017-09-12T09:35:02.844Z,92.18
2017-09-12T09:40:02.035Z,87.27
2017-09-12T09:45:02.293Z,88.75
2017-09-12T09:50:02.587Z,89.76
2017-09-12T09:55:02.778Z,84.59
2017-09-12T10:00:02.981Z,85.24
2017-09-12T10:05:02.048Z,80.79
2017-09-12T10:10:02.249Z,83.27
2017-09-12T10:15:02.428Z,85.22
2017-09-12T10:20:02.851Z,86.88
2017-09-12T10:25:02.028Z,85.7
2017-09-12T10:30:02.288Z,84.67
2017-09-12T10:35:02.484Z,84.03
2017-09-12T10:40:02.676Z,84.24
2017-09-12T10:45:02.880Z,82.25
2017-09-12T10:50:02.747Z,88.91
2017-09-12T10:55:02.942Z,88.01
2017-09-12T11:00:02.144Z,89.94
2017-09-12T11:05:02.693Z,87.63
2017-09-12T11:10:02.880Z,88
2017-09-12T11:15:02.107Z,87.82
2017-09-12T11:20:02.404Z,90.62
2017-09-12T11:25:02.624Z,89.98
2017-09-12T11:30:02.827Z,86.82
2017-09-12T11:35:03.035Z,85.87
2017-09-12T11:40:02.217Z,84.42
2017-09-12T11:45:02.459Z,84.89
2017-09-12T11:50:02.233Z,82.33
2017-09-12T11:55:02.420Z,81.06
2017-09-12T12:00:02.674Z,78.92
2017-09-12T12:05:02.562Z,76.75
2017-09-12T12:10:02.801Z,76.37
2017-09-12T12:15:03.037Z,78.85
2017-09-12T12:20:02.518Z,77.56
2017-09-12T12:25:02.816Z,80.21
2017-09-12T12:30:02.042Z,80.47
2017-09-12T12:35:02.315Z,79.49
2017-09-12T12:40:02.584Z,78.16
2017-09-12T12:45:02.783Z,78.26
2017-09-12T12:50:02.156Z,78.48
2017-09-12T12:55:02.403Z,80.65
2017-09-12T13:00:02.601Z,86.11
2017-09-12T13:05:02.038Z,83.07
2017-09-12T13:10:02.304Z,83.15
2017-09-12T13:15:02.496Z,83.94
2017-09-12T13:20:02.793Z,86.99
2017-09-12T13:25:02.995Z,88.38
2017-09-12T13:30:02.157Z,85.66
2017-09-12T13:35:02.416Z,83.34
2017-09-12T13:40:02.659Z,80.54
2017-09-12T13:45:02.937Z,78.37
2017-09-12T13:50:02.109Z,81.8
2017-09-12T13:55:02.319Z,80.22
2017-09-12T14:00:02.551Z,81.64
2017-09-12T14:05:02.113Z,82.47
2017-09-12T14:10:02.372Z,80.33
2017-09-12T14:15:02.576Z,84.45
2017-09-12T14:20:02.883Z,87.22
2017-09-12T14:25:02.137Z,93.31
2017-09-12T14:30:02.354Z,94.67
2017-09-12T14:35:02.815Z,96.46
2017-09-12T14:40:03.032Z,97.12
2017-09-12T14:45:02.210Z,95.42
2017-09-12T14:50:02.431Z,93.74
2017-09-12T14:55:02.638Z,96
2017-09-12T15:00:02.854Z,101.23
2017-09-12T15:05:02.167Z,106.36
2017-09-12T15:10:02.384Z,105.35
2017-09-12T15:15:02.650Z,107.46
2017-09-12T15:20:02.834Z,106.81
2017-09-12T15:25:02.032Z,108.35
2017-09-12T15:30:02.228Z,108.19
2017-09-12T15:35:02.493Z,109.17
2017-09-12T15:40:02.778Z,109.12
2017-09-12T15:45:02.951Z,109.92
2017-09-12T15:50:02.479Z,110.11
2017-09-12T15:55:02.714Z,111.32
2017-09-12T16:00:02.906Z,110.35
2017-09-12T16:05:02.958Z,111.36
2017-09-12T16:10:02.173Z,110.86
2017-09-12T16:15:02.373Z,111.96
2017-09-12T16:20:02.741Z,112.47
2017-09-12T16:25:02.972Z,112.89
2017-09-12T16:30:02.193Z,112.31
2017-09-12T16:35:02.938Z,112.28
2017-09-12T16:40:02.139Z,113.05
2017-09-12T16:45:02.341Z,113.55
2017-09-12T16:50:03.032Z,113.57
2017-09-12T16:55:02.206Z,113.28
2017-09-12T17:00:02.398Z,114.08
2017-09-12T17:05:02.738Z,113.93
2017-09-12T17:10:02.917Z,113.76
2017-09-12T17:15:02.164Z,113.84
2017-09-12T17:20:02.617Z,113.79
2017-09-12T17:25:02.992Z,114.01
2017-09-12T17:30:02.159Z,113.97
2017-09-12T17:35:02.620Z,113.99
2017-09-12T17:40:02.828Z,114.11
2017-09-12T17:45:02.422Z,113.68
2017-09-12T17:50:05.755Z,113.31
2017-09-12T17:55:02.956Z,112.95
2017-09-12T18:00:02.323Z,112.79
2017-09-12T18:05:02.626Z,113.82
2017-09-12T18:10:03.079Z,113.63
2017-09-12T18:15:02.314Z,114.91
2017-09-12T18:20:02.952Z,114.73
2017-09-12T18:25:02.330Z,114.72
2017-09-12T18:30:02.561Z,114.7
2017-09-12T18:35:03.018Z,115.2
2017-09-12T18:40:02.253Z,114.84
2017-09-12T18:45:02.459Z,114.33
2017-09-12T18:50:02.671Z,113.66
2017-09-12T18:55:03.041Z,113.88
2017-09-12T19:00:02.255Z,113.57
2017-09-12T19:05:02.627Z,114.08
2017-09-12T19:10:02.833Z,114.31
2017-09-12T19:15:02.102Z,114.97
2017-09-12T19:20:02.380Z,115.41
2017-09-12T19:25:02.608Z,114.24
2017-09-12T19:30:02.830Z,115.33
2017-09-12T19:35:02.273Z,114.94
2017-09-12T19:40:02.509Z,115.41
2017-09-12T19:45:02.734Z,115.31
2017-09-12T19:50:02.959Z,115.96
2017-09-12T19:55:02.192Z,115.65
2017-09-12T20:00:02.415Z,115.11
2017-09-12T20:05:02.715Z,115.89
2017-09-12T20:10:02.971Z,115.4
2017-09-12T20:15:02.206Z,115.91
2017-09-12T20:20:02.337Z,115.39
2017-09-12T20:25:02.571Z,116.34
2017-09-12T20:30:02.820Z,116.44
2017-09-12T20:35:02.946Z,116.36
2017-09-12T20:40:02.153Z,115.65
2017-09-12T20:45:02.375Z,115.9
2017-09-12T20:50:02.477Z,115.21
2017-09-12T20:55:02.716Z,115.39
2017-09-12T21:00:02.943Z,115.49
2017-09-12T21:05:02.944Z,116.23
2017-09-12T21:10:02.143Z,115.46
2017-09-12T21:15:02.399Z,115.84
2017-09-12T21:20:02.413Z,116.16
2017-09-12T21:25:02.642Z,116.31
2017-09-12T21:30:02.870Z,115.83
2017-09-12T21:35:02.989Z,115.95
2017-09-12T21:40:02.224Z,116.97
2017-09-12T21:45:02.465Z,116.41
2017-09-12T21:50:02.253Z,116.3
2017-09-12T21:55:02.578Z,116.25
2017-09-12T22:00:03.105Z,115.91
2017-09-12T22:05:02.673Z,116.49
2017-09-12T22:10:02.069Z,116.03
2017-09-12T22:15:02.474Z,116.84
2017-09-12T22:20:02.554Z,116.37
2017-09-12T22:25:02.935Z,116.21
2017-09-12T22:30:02.304Z,116.49
2017-09-12T22:35:02.655Z,116.49
2017-09-12T22:40:02.988Z,116.34
2017-09-12T22:45:02.403Z,116.38
2017-09-12T22:50:02.902Z,117.01
2017-09-12T22:55:02.281Z,116.2
2017-09-12T23:00:02.614Z,116.71
2017-09-12T23:05:02.401Z,116.63
2017-09-12T23:10:02.587Z,116.55
2017-09-12T23:15:02.784Z,116.91
2017-09-12T23:20:02.107Z,116.04
2017-09-12T23:25:02.353Z,115.99
2017-09-12T23:30:02.537Z,116.43
2017-09-12T23:35:02.097Z,115.97
2017-09-12T23:40:02.338Z,116.42
2017-09-12T23:45:02.567Z,115.79
2017-09-12T23:50:02.744Z,115.88
2017-09-12T23:55:02.957Z,116.46
